createdAt,value
2019-03-19T00:00:55.780Z,0.00
2019-03-19T00:01:55.828Z,0.00
2019-03-19T00:02:55.741Z,0.00
2019-03-19T00:03:55.759Z,0.00
2019-03-19T00:04:55.722Z,0.00
2019-03-19T00:05:55.731Z,0.00
2019-03-19T00:06:56.790Z,0.00
2019-03-19T00:07:55.694Z,0.00
2019-03-19T00:08:55.702Z,0.00
2019-03-19T00:09:55.672Z,0.00
2019-03-19T00:10:55.672Z,0.00
2019-03-19T00:11:57.783Z,0.00
2019-03-19T00:12:55.673Z,0.00
2019-03-19T00:13:55.623Z,0.00
2019-03-19T00:14:55.705Z,0.00
2019-03-19T00:15:55.615Z,0.00
2019-03-19T00:16:55.645Z,0.00
2019-03-19T00:17:55.576Z,0.00
2019-03-19T00:18:55.577Z,0.00
2019-03-19T00:19:55.561Z,0.00
2019-03-19T00:20:56.576Z,0.00
2019-03-19T00:21:55.516Z,0.00
2019-03-19T00:22:56.578Z,0.00
2019-03-19T00:23:55.510Z,0.00
2019-03-19T00:24:55.588Z,0.00
2019-03-19T00:25:55.488Z,0.00
2019-03-19T00:26:55.469Z,0.00
2019-03-19T00:27:55.449Z,0.00
2019-03-19T00:28:55.559Z,0.00
2019-03-19T00:29:55.429Z,0.00
2019-03-19T00:30:55.531Z,0.00
2019-03-19T00:31:55.411Z,0.00
2019-03-19T00:32:55.421Z,0.00
2019-03-19T00:33:55.382Z,0.00
2019-03-19T00:34:55.462Z,0.00
2019-03-19T00:35:55.382Z,0.00
2019-03-19T00:36:56.423Z,0.00
2019-03-19T00:37:55.343Z,0.00
2019-03-19T00:38:55.434Z,0.00
2019-03-19T00:39:55.314Z,0.00
2019-03-19T00:40:55.415Z,0.00
2019-03-19T00:41:55.294Z,0.00
2019-03-19T00:42:55.295Z,0.00
2019-03-19T00:43:55.286Z,0.00
2019-03-19T00:44:55.335Z,0.00
2019-03-19T00:45:55.276Z,0.00
2019-03-19T00:46:56.309Z,0.00
2019-03-19T00:47:55.239Z,0.00
2019-03-19T00:48:56.237Z,0.00
2019-03-19T00:49:55.209Z,0.00
2019-03-19T00:50:55.308Z,0.00
2019-03-19T00:51:55.189Z,0.00
2019-03-19T00:52:56.209Z,0.00
2019-03-19T00:53:55.170Z,0.00
2019-03-19T00:54:55.220Z,0.00
2019-03-19T00:55:55.160Z,0.00
2019-03-19T00:56:56.181Z,0.00
2019-03-19T00:57:55.118Z,0.00
2019-03-19T00:58:55.112Z,0.00
2019-03-19T00:59:55.104Z,0.00
2019-03-19T01:00:55.173Z,0.00
2019-03-19T01:01:55.131Z,0.00
2019-03-19T01:02:56.084Z,0.00
2019-03-19T01:03:55.045Z,0.00
2019-03-19T01:04:55.103Z,0.00
2019-03-19T01:05:55.024Z,0.00
2019-03-19T01:06:55.084Z,0.00
2019-03-19T01:07:54.995Z,0.00
2019-03-19T01:08:55.082Z,0.00
2019-03-19T01:09:54.975Z,0.00
2019-03-19T01:10:55.006Z,0.00
2019-03-19T01:11:54.967Z,0.00
2019-03-19T01:12:55.047Z,0.00
2019-03-19T01:13:55.129Z,0.00
2019-03-19T01:14:54.919Z,0.00
2019-03-19T01:15:54.910Z,0.00
2019-03-19T01:16:54.959Z,0.00
2019-03-19T01:17:54.885Z,0.00
2019-03-19T01:18:54.949Z,0.00
2019-03-19T01:19:54.920Z,0.00
2019-03-19T01:20:54.861Z,0.00
2019-03-19T01:21:54.903Z,0.00
2019-03-19T01:22:54.832Z,0.00
2019-03-19T01:23:54.891Z,0.00
2019-03-19T01:24:54.802Z,0.00
2019-03-19T01:25:55.892Z,0.00
2019-03-19T01:26:54.843Z,0.00
2019-03-19T01:27:54.783Z,0.00
2019-03-19T01:28:54.833Z,0.00
2019-03-19T01:29:54.754Z,0.00
2019-03-19T01:30:54.745Z,0.00
2019-03-19T01:31:54.758Z,0.00
2019-03-19T01:32:55.835Z,0.00
2019-03-19T01:33:54.716Z,0.00
2019-03-19T01:34:54.746Z,0.00
2019-03-19T01:35:54.686Z,0.00
2019-03-19T01:36:54.731Z,0.00
2019-03-19T01:37:54.668Z,0.00
2019-03-19T01:38:55.737Z,0.00
2019-03-19T01:39:54.649Z,0.00
2019-03-19T01:40:54.648Z,0.00
2019-03-19T01:41:54.629Z,0.00
2019-03-19T01:42:55.714Z,0.00
2019-03-19T01:43:54.590Z,0.00
2019-03-19T01:44:55.640Z,0.00
2019-03-19T01:45:54.570Z,0.00
2019-03-19T01:46:54.571Z,0.00
2019-03-19T01:47:54.544Z,0.00
2019-03-19T01:48:54.591Z,0.00
2019-03-19T01:49:54.522Z,0.00
2019-03-19T01:51:01.272Z,0.00
2019-03-19T01:51:54.513Z,0.00
2019-03-19T01:52:54.565Z,0.00
2019-03-19T01:53:54.473Z,0.00
2019-03-19T01:54:54.494Z,0.00
2019-03-19T01:56:01.166Z,0.00
2019-03-19T01:56:55.455Z,0.00
2019-03-19T01:57:54.436Z,0.00
2019-03-19T01:58:54.513Z,0.00
2019-03-19T01:59:54.416Z,0.00
2019-03-19T02:01:01.257Z,0.00
2019-03-19T02:01:54.396Z,0.00
2019-03-19T02:02:54.377Z,0.00
2019-03-19T02:03:54.378Z,0.00
2019-03-19T02:04:54.378Z,0.00
2019-03-19T02:05:54.348Z,0.00
2019-03-19T02:06:55.389Z,0.00
2019-03-19T02:07:54.330Z,0.00
2019-03-19T02:08:55.397Z,0.00
2019-03-19T02:09:54.300Z,0.00
2019-03-19T02:10:54.390Z,0.00
2019-03-19T02:11:54.302Z,0.00
2019-03-19T02:12:55.352Z,0.00
2019-03-19T02:13:54.262Z,0.00
2019-03-19T02:14:56.312Z,0.00
2019-03-19T02:15:54.232Z,0.00
2019-03-19T02:16:54.342Z,0.00
2019-03-19T02:17:54.214Z,0.00
2019-03-19T02:18:54.204Z,0.00
2019-03-19T02:19:54.185Z,0.00
2019-03-19T02:20:54.275Z,0.00
2019-03-19T02:21:54.174Z,0.00
2019-03-19T02:22:54.205Z,0.00
2019-03-19T02:23:54.140Z,0.00
2019-03-19T02:24:54.126Z,0.00
2019-03-19T02:25:54.210Z,0.00
2019-03-19T02:26:54.128Z,0.00
2019-03-19T02:27:55.167Z,0.00
2019-03-19T02:28:54.097Z,0.00
2019-03-19T02:29:54.067Z,0.00
2019-03-19T02:30:56.115Z,0.00
2019-03-19T02:31:54.059Z,0.00
2019-03-19T02:32:55.116Z,0.00
2019-03-19T02:33:54.020Z,0.00
2019-03-19T02:34:54.010Z,0.00
2019-03-19T02:35:54.001Z,0.00
2019-03-19T02:36:54.111Z,0.00
2019-03-19T02:37:53.993Z,0.00
2019-03-19T02:38:53.991Z,0.00
2019-03-19T02:39:53.952Z,0.00
2019-03-19T02:40:54.036Z,0.00
2019-03-19T02:41:53.960Z,0.00
2019-03-19T02:42:53.964Z,0.00
2019-03-19T02:43:53.914Z,0.00
2019-03-19T02:44:54.004Z,0.00
2019-03-19T02:45:53.895Z,0.00
2019-03-19T02:46:55.014Z,0.00
2019-03-19T02:47:53.887Z,0.00
2019-03-19T02:48:53.979Z,0.00
2019-03-19T02:49:53.847Z,0.00
2019-03-19T02:50:53.830Z,0.00
2019-03-19T02:51:53.849Z,0.00
2019-03-19T02:52:54.869Z,0.00
2019-03-19T02:53:53.868Z,0.00
2019-03-19T02:54:54.910Z,0.00
2019-03-19T02:55:53.782Z,0.00
2019-03-19T02:56:53.788Z,0.00
2019-03-19T02:57:53.779Z,0.00
2019-03-19T02:58:53.750Z,0.00
2019-03-19T02:59:53.820Z,0.00
2019-03-19T03:00:53.721Z,0.00
2019-03-19T03:01:53.721Z,0.00
2019-03-19T03:02:53.702Z,0.00
2019-03-19T03:03:55.734Z,0.00
2019-03-19T03:04:53.673Z,0.00
2019-03-19T03:05:53.724Z,0.00
2019-03-19T03:06:55.253Z,0.00
2019-03-19T03:07:53.644Z,0.00
2019-03-19T03:08:53.742Z,0.00
2019-03-19T03:09:53.615Z,0.00
2019-03-19T03:10:53.668Z,0.00
2019-03-19T03:11:53.595Z,0.00
2019-03-19T03:12:53.603Z,0.00
2019-03-19T03:13:53.665Z,0.00
2019-03-19T03:14:53.564Z,0.00
2019-03-19T03:15:53.606Z,0.00
2019-03-19T03:16:53.536Z,0.00
2019-03-19T03:17:53.549Z,0.00
2019-03-19T03:18:53.518Z,0.00
2019-03-19T03:19:53.567Z,0.00
2019-03-19T03:20:53.490Z,0.00
2019-03-19T03:21:53.521Z,0.00
2019-03-19T03:22:53.489Z,0.00
2019-03-19T03:24:00.299Z,0.00
2019-03-19T03:24:53.474Z,0.00
2019-03-19T03:25:54.510Z,0.00
2019-03-19T03:26:53.434Z,0.00
2019-03-19T03:27:53.473Z,0.00
2019-03-19T03:28:53.412Z,0.00
2019-03-19T03:29:53.462Z,0.00
2019-03-19T03:30:53.397Z,0.00
2019-03-19T03:31:54.412Z,0.00
2019-03-19T03:32:53.470Z,0.00
2019-03-19T03:33:53.353Z,0.00
2019-03-19T03:34:53.344Z,0.00
2019-03-19T03:35:55.439Z,0.00
2019-03-19T03:36:53.330Z,0.00
2019-03-19T03:37:53.345Z,0.00
2019-03-19T03:38:53.287Z,0.00
2019-03-19T03:39:53.276Z,0.00
2019-03-19T03:40:53.265Z,0.00
2019-03-19T03:41:53.376Z,0.00
2019-03-19T03:42:53.260Z,0.00
2019-03-19T03:43:53.319Z,0.00
2019-03-19T03:44:54.297Z,0.00
2019-03-19T03:45:53.216Z,0.00
2019-03-19T03:46:54.240Z,0.00
2019-03-19T03:47:53.209Z,0.00
2019-03-19T03:48:53.250Z,0.00
2019-03-19T03:49:53.169Z,0.00
2019-03-19T03:50:53.163Z,0.00
2019-03-19T03:51:53.250Z,0.00
2019-03-19T03:52:53.166Z,0.00
2019-03-19T03:53:54.216Z,0.00
2019-03-19T03:54:53.114Z,0.00
2019-03-19T03:55:53.101Z,0.00
2019-03-19T03:57:01.820Z,0.00
2019-03-19T03:57:54.097Z,0.00
2019-03-19T03:59:00.424Z,0.00
2019-03-19T03:59:54.063Z,0.00
2019-03-19T04:00:53.046Z,0.00
2019-03-19T04:01:53.062Z,0.00
2019-03-19T04:02:53.104Z,0.00
2019-03-19T04:03:53.035Z,0.00
2019-03-19T04:04:53.041Z,0.00
2019-03-19T04:05:52.995Z,0.00
2019-03-19T04:06:52.985Z,0.00
2019-03-19T04:07:54.085Z,0.00
2019-03-19T04:08:52.978Z,0.00
2019-03-19T04:09:52.977Z,0.00
2019-03-19T04:10:52.948Z,0.00
2019-03-19T04:11:52.928Z,0.00
2019-03-19T04:12:52.988Z,0.00
2019-03-19T04:13:52.931Z,0.00
2019-03-19T04:14:52.912Z,0.00
2019-03-19T04:15:52.890Z,0.00
2019-03-19T04:16:52.889Z,0.00
2019-03-19T04:17:52.874Z,0.00
2019-03-19T04:18:52.933Z,0.00
2019-03-19T04:19:52.836Z,0.00
2019-03-19T04:20:52.920Z,0.00
2019-03-19T04:21:52.825Z,0.00
2019-03-19T04:22:52.803Z,0.00
2019-03-19T04:23:52.861Z,0.00
2019-03-19T04:24:52.782Z,0.00
2019-03-19T04:25:52.876Z,0.00
2019-03-19T04:26:52.759Z,0.00
2019-03-19T04:27:52.745Z,0.00
2019-03-19T04:28:52.819Z,0.00
2019-03-19T04:29:52.725Z,0.00
2019-03-19T04:30:52.815Z,0.00
2019-03-19T04:31:52.696Z,0.00
2019-03-19T04:32:53.755Z,0.00
2019-03-19T04:33:52.695Z,0.00
2019-03-19T04:34:54.728Z,0.00
2019-03-19T04:35:52.657Z,0.00
2019-03-19T04:36:52.697Z,0.00
2019-03-19T04:37:52.637Z,0.00
2019-03-19T04:38:52.647Z,0.00
2019-03-19T04:39:52.728Z,0.00
2019-03-19T04:40:52.611Z,0.00
2019-03-19T04:41:53.672Z,0.00
2019-03-19T04:42:52.589Z,0.00
2019-03-19T04:43:52.589Z,0.00
2019-03-19T04:44:52.560Z,0.00
2019-03-19T04:45:52.621Z,0.00
2019-03-19T04:46:52.540Z,0.00
2019-03-19T04:47:52.551Z,0.00
2019-03-19T04:48:52.588Z,0.00
2019-03-19T04:49:52.512Z,0.00
2019-03-19T04:50:53.582Z,0.00
2019-03-19T04:51:52.486Z,0.00
2019-03-19T04:52:52.493Z,0.00
2019-03-19T04:53:52.473Z,0.00
2019-03-19T04:54:53.553Z,0.00
2019-03-19T04:55:52.433Z,4.00
2019-03-19T04:56:52.465Z,0.00
2019-03-19T04:57:52.404Z,4.00
2019-03-19T04:58:52.436Z,4.00
2019-03-19T04:59:53.495Z,4.00
2019-03-19T05:00:52.376Z,4.00
2019-03-19T05:01:52.409Z,8.00
2019-03-19T05:02:52.356Z,8.00
2019-03-19T05:03:52.377Z,8.00
2019-03-19T05:04:53.427Z,8.00
2019-03-19T05:05:52.318Z,12.00
2019-03-19T05:06:52.338Z,12.00
2019-03-19T05:07:52.298Z,16.00
2019-03-19T05:08:52.325Z,20.00
2019-03-19T05:09:52.279Z,20.00
2019-03-19T05:10:52.270Z,28.00
2019-03-19T05:12:00.259Z,32.00
2019-03-19T05:12:52.240Z,32.00
2019-03-19T05:13:52.361Z,40.00
2019-03-19T05:14:52.222Z,44.00
2019-03-19T05:15:52.215Z,52.00
2019-03-19T05:16:52.212Z,60.00
2019-03-19T05:17:54.242Z,64.00
2019-03-19T05:18:52.195Z,76.00
2019-03-19T05:19:52.289Z,80.00
2019-03-19T05:20:52.166Z,92.00
2019-03-19T05:21:52.167Z,100.00
2019-03-19T05:22:52.144Z,112.00
2019-03-19T05:23:52.206Z,124.00
2019-03-19T05:24:52.135Z,132.00
2019-03-19T05:25:52.135Z,144.00
2019-03-19T05:26:52.095Z,156.00
2019-03-19T05:27:53.096Z,168.00
2019-03-19T05:28:52.077Z,180.00
2019-03-19T05:29:52.157Z,192.00
2019-03-19T05:30:52.060Z,208.00
2019-03-19T05:31:52.054Z,216.00
2019-03-19T05:32:52.029Z,232.00
2019-03-19T05:33:52.082Z,248.00
2019-03-19T05:34:52.023Z,264.00
2019-03-19T05:35:54.064Z,280.00
2019-03-19T05:36:51.983Z,312.00
2019-03-19T05:37:52.050Z,360.00
2019-03-19T05:38:51.962Z,400.00
2019-03-19T05:39:52.030Z,428.00
2019-03-19T05:40:51.931Z,452.00
2019-03-19T05:41:52.022Z,480.00
2019-03-19T05:42:51.992Z,496.00
2019-03-19T05:43:51.907Z,512.00
2019-03-19T05:44:52.993Z,532.00
2019-03-19T05:45:51.882Z,568.00
2019-03-19T05:46:51.954Z,620.00
2019-03-19T05:47:51.867Z,648.00
2019-03-19T05:48:51.893Z,640.00
2019-03-19T05:49:51.855Z,640.00
2019-03-19T05:50:51.935Z,636.00
2019-03-19T05:51:51.843Z,660.00
2019-03-19T05:52:51.866Z,696.00
2019-03-19T05:53:51.807Z,740.00
2019-03-19T05:54:51.856Z,896.00
2019-03-19T05:55:51.785Z,984.00
2019-03-19T05:56:51.846Z,980.00
2019-03-19T05:57:51.761Z,1028.00
2019-03-19T05:58:51.749Z,960.00
2019-03-19T05:59:51.798Z,972.00
2019-03-19T06:00:51.728Z,1012.00
2019-03-19T06:01:51.779Z,1080.00
2019-03-19T06:02:51.700Z,1196.00
2019-03-19T06:03:51.690Z,1372.00
2019-03-19T06:04:51.689Z,1372.00
2019-03-19T06:05:51.760Z,1328.00
2019-03-19T06:06:51.651Z,1264.00
2019-03-19T06:07:51.693Z,1220.00
2019-03-19T06:08:51.621Z,1264.00
2019-03-19T06:09:51.661Z,1288.00
2019-03-19T06:10:51.603Z,1288.00
2019-03-19T06:11:51.662Z,1300.00
2019-03-19T06:12:51.582Z,1276.00
2019-03-19T06:13:53.648Z,1268.00
2019-03-19T06:14:51.574Z,1160.00
2019-03-19T06:15:51.633Z,1100.00
2019-03-19T06:16:51.535Z,1128.00
2019-03-19T06:17:51.565Z,1268.00
2019-03-19T06:18:51.516Z,1616.00
2019-03-19T06:19:51.515Z,1952.00
2019-03-19T06:20:51.515Z,2116.00
2019-03-19T06:21:51.536Z,2084.00
2019-03-19T06:22:51.466Z,2056.00
2019-03-19T06:23:51.567Z,1980.00
2019-03-19T06:24:51.468Z,1836.00
2019-03-19T06:25:51.439Z,1772.00
2019-03-19T06:26:53.518Z,1756.00
2019-03-19T06:27:59.896Z,1656.00
2019-03-19T06:28:52.409Z,1536.00
2019-03-19T06:29:52.459Z,1508.00
2019-03-19T06:30:51.399Z,1600.00
2019-03-19T06:31:51.421Z,1556.00
2019-03-19T06:32:51.370Z,1472.00
2019-03-19T06:33:51.461Z,1292.00
2019-03-19T06:34:51.362Z,1224.00
2019-03-19T06:35:51.331Z,1220.00
2019-03-19T06:36:51.322Z,1184.00
2019-03-19T06:37:51.323Z,1116.00
2019-03-19T06:38:51.302Z,1104.00
2019-03-19T06:39:51.414Z,1076.00
2019-03-19T06:40:51.282Z,1092.00
2019-03-19T06:41:52.324Z,1148.00
2019-03-19T06:42:51.254Z,1300.00
2019-03-19T06:43:52.255Z,1500.00
2019-03-19T06:44:51.245Z,1568.00
2019-03-19T06:45:51.266Z,1616.00
2019-03-19T06:46:51.205Z,1704.00
2019-03-19T06:47:51.320Z,1816.00
2019-03-19T06:48:51.185Z,1908.00
2019-03-19T06:49:51.276Z,1960.00
2019-03-19T06:50:51.157Z,1900.00
2019-03-19T06:51:51.152Z,1860.00
2019-03-19T06:52:51.137Z,1892.00
2019-03-19T06:53:51.209Z,1904.00
2019-03-19T06:54:51.129Z,2028.00
2019-03-19T06:55:51.139Z,2308.00
2019-03-19T06:56:51.110Z,2572.00
2019-03-19T06:57:51.080Z,3280.00
2019-03-19T06:58:51.150Z,3456.00
2019-03-19T06:59:51.070Z,3620.00
2019-03-19T07:00:52.101Z,3612.00
2019-03-19T07:01:51.042Z,3456.00
2019-03-19T07:02:51.121Z,3348.00
2019-03-19T07:03:51.013Z,3100.00
2019-03-19T07:04:53.062Z,2928.00
2019-03-19T07:05:50.993Z,2888.00
2019-03-19T07:06:51.094Z,2920.00
2019-03-19T07:07:50.984Z,3152.00
2019-03-19T07:08:51.034Z,3600.00
2019-03-19T07:09:50.974Z,4052.00
2019-03-19T07:10:50.966Z,4416.00
2019-03-19T07:11:50.940Z,4356.00
2019-03-19T07:12:50.925Z,4248.00
2019-03-19T07:13:50.916Z,4356.00
2019-03-19T07:14:50.989Z,4576.00
2019-03-19T07:15:50.897Z,4616.00
2019-03-19T07:16:50.977Z,5004.00
2019-03-19T07:17:50.873Z,4812.00
2019-03-19T07:18:50.858Z,4676.00
2019-03-19T07:19:50.929Z,4884.00
2019-03-19T07:20:50.839Z,4688.00
2019-03-19T07:21:51.948Z,4864.00
2019-03-19T07:22:50.809Z,4940.00
2019-03-19T07:23:50.790Z,5008.00
2019-03-19T07:24:50.780Z,5020.00
2019-03-19T07:25:50.831Z,4904.00
2019-03-19T07:26:50.764Z,4476.00
2019-03-19T07:27:51.143Z,4248.00
2019-03-19T07:28:50.743Z,3856.00
2019-03-19T07:29:50.754Z,3440.00
2019-03-19T07:30:50.736Z,3284.00
2019-03-19T07:31:51.782Z,3376.00
2019-03-19T07:32:50.692Z,3680.00
2019-03-19T07:33:50.725Z,4272.00
2019-03-19T07:34:50.677Z,5696.00
2019-03-19T07:35:50.707Z,5828.00
2019-03-19T07:36:50.654Z,5612.00
2019-03-19T07:37:50.695Z,5872.00
2019-03-19T07:38:50.637Z,6236.00
2019-03-19T07:39:50.656Z,7752.00
2019-03-19T07:40:51.014Z,6896.00
2019-03-19T07:41:50.596Z,7908.00
2019-03-19T07:42:50.770Z,8588.00
2019-03-19T07:43:50.587Z,7788.00
2019-03-19T07:44:50.549Z,6976.00
2019-03-19T07:45:50.569Z,7032.00
2019-03-19T07:46:50.619Z,7624.00
2019-03-19T07:47:50.540Z,15648.00
2019-03-19T07:48:50.549Z,9844.00
2019-03-19T07:49:50.521Z,6676.00
2019-03-19T07:50:50.985Z,6524.00
2019-03-19T07:51:50.491Z,9060.00
2019-03-19T07:52:50.522Z,6992.00
2019-03-19T07:53:50.471Z,5828.00
2019-03-19T07:54:50.561Z,5676.00
2019-03-19T07:55:50.463Z,8220.00
2019-03-19T07:56:50.495Z,8748.00
2019-03-19T07:57:50.474Z,9260.00
2019-03-19T07:58:50.441Z,9844.00
2019-03-19T07:59:50.404Z,8116.00
2019-03-19T08:00:50.403Z,6440.00
2019-03-19T08:01:52.477Z,9128.00
2019-03-19T08:02:50.356Z,6344.00
2019-03-19T08:03:50.366Z,5732.00
2019-03-19T08:04:50.335Z,5040.00
2019-03-19T08:05:50.345Z,6052.00
2019-03-19T08:06:50.317Z,8204.00
2019-03-19T08:07:50.336Z,8868.00
2019-03-19T08:08:50.297Z,7952.00
2019-03-19T08:09:50.377Z,6560.00
2019-03-19T08:10:50.289Z,5404.00
2019-03-19T08:11:50.261Z,4392.00
2019-03-19T08:12:52.321Z,3812.00
2019-03-19T08:13:50.239Z,3748.00
2019-03-19T08:14:51.333Z,3892.00
2019-03-19T08:15:50.230Z,7296.00
2019-03-19T08:16:50.201Z,6884.00
2019-03-19T08:17:50.202Z,8676.00
2019-03-19T08:18:51.201Z,9984.00
2019-03-19T08:19:50.171Z,9836.00
2019-03-19T08:20:55.272Z,9264.00
2019-03-19T08:21:50.163Z,12996.00
2019-03-19T08:22:50.163Z,12340.00
2019-03-19T08:23:50.136Z,8248.00
2019-03-19T08:24:52.177Z,11300.00
2019-03-19T08:25:50.137Z,10724.00
2019-03-19T08:26:50.135Z,10828.00
2019-03-19T08:27:50.085Z,10804.00
2019-03-19T08:28:55.325Z,12308.00
2019-03-19T08:29:51.065Z,11812.00
2019-03-19T08:30:50.159Z,11416.00
2019-03-19T08:31:50.048Z,14496.00
2019-03-19T08:32:50.038Z,14688.00
2019-03-19T08:33:50.019Z,13216.00
2019-03-19T08:34:50.079Z,15200.00
2019-03-19T08:35:50.019Z,15456.00
2019-03-19T08:36:51.038Z,11848.00
2019-03-19T08:37:49.989Z,18112.00
2019-03-19T08:38:49.970Z,17664.00
2019-03-19T08:39:49.952Z,16064.00
2019-03-19T08:40:51.160Z,9228.00
2019-03-19T08:41:49.924Z,12896.00
2019-03-19T08:42:50.941Z,13340.00
2019-03-19T08:43:49.902Z,29344.00
2019-03-19T08:44:49.955Z,47264.00
2019-03-19T08:45:49.903Z,7120.00
2019-03-19T08:46:49.886Z,16064.00
2019-03-19T08:47:49.854Z,6080.00
2019-03-19T08:48:49.924Z,5372.00
2019-03-19T08:49:49.894Z,5324.00
2019-03-19T08:50:49.841Z,5448.00
2019-03-19T08:51:50.847Z,4548.00
2019-03-19T08:52:49.797Z,4648.00
2019-03-19T08:53:49.866Z,5144.00
2019-03-19T08:54:49.777Z,5400.00
2019-03-19T08:55:49.838Z,7112.00
2019-03-19T08:56:49.748Z,29920.00
2019-03-19T08:57:49.838Z,38528.00
2019-03-19T08:58:49.729Z,26944.00
2019-03-19T08:59:50.803Z,38752.00
2019-03-19T09:00:49.729Z,20448.00
2019-03-19T09:01:49.811Z,24640.00
2019-03-19T09:02:49.680Z,48288.00
2019-03-19T09:03:49.740Z,40640.00
2019-03-19T09:04:49.665Z,29312.00
2019-03-19T09:05:49.662Z,9380.00
2019-03-19T09:06:49.643Z,12548.00
2019-03-19T09:07:50.734Z,5216.00
2019-03-19T09:08:50.448Z,3456.00
2019-03-19T09:09:49.990Z,2592.00
2019-03-19T09:10:49.614Z,2140.00
2019-03-19T09:11:51.637Z,1956.00
2019-03-19T09:12:49.585Z,2080.00
2019-03-19T09:13:56.286Z,2708.00
2019-03-19T09:14:49.546Z,3296.00
2019-03-19T09:15:49.617Z,4188.00
2019-03-19T09:16:50.557Z,4916.00
2019-03-19T09:17:49.527Z,16128.00
2019-03-19T09:18:49.569Z,69760.00
2019-03-19T09:19:49.500Z,76928.00
2019-03-19T09:20:50.549Z,80160.00
2019-03-19T09:21:49.470Z,36992.00
2019-03-19T09:22:49.551Z,15328.00
2019-03-19T09:23:49.461Z,38816.00
2019-03-19T09:24:49.483Z,43232.00
2019-03-19T09:25:49.439Z,75072.00
2019-03-19T09:26:50.491Z,76608.00
2019-03-19T09:27:49.411Z,27328.00
2019-03-19T09:28:50.475Z,11660.00
2019-03-19T09:29:49.396Z,6444.00
2019-03-19T09:30:50.413Z,6020.00
2019-03-19T09:31:49.375Z,5604.00
2019-03-19T09:32:49.355Z,4972.00
2019-03-19T09:33:49.346Z,4116.00
2019-03-19T09:34:49.355Z,3588.00
2019-03-19T09:35:49.315Z,3188.00
2019-03-19T09:36:56.995Z,2940.00
2019-03-19T09:37:58.266Z,3028.00
2019-03-19T09:38:50.277Z,3072.00
2019-03-19T09:39:49.299Z,2740.00
2019-03-19T09:40:49.260Z,2444.00
2019-03-19T09:41:49.278Z,2776.00
2019-03-19T09:42:49.259Z,2668.00
2019-03-19T09:43:49.221Z,2616.00
2019-03-19T09:44:58.205Z,2360.00
2019-03-19T09:45:50.221Z,2164.00
2019-03-19T09:46:49.321Z,2436.00
2019-03-19T09:47:49.186Z,2664.00
2019-03-19T09:48:49.163Z,3340.00
2019-03-19T09:49:49.163Z,4684.00
2019-03-19T09:50:49.245Z,4548.00
2019-03-19T09:51:49.143Z,4228.00
2019-03-19T09:52:49.186Z,3816.00
2019-03-19T09:53:49.104Z,3640.00
2019-03-19T09:54:49.105Z,3480.00
2019-03-19T09:55:49.186Z,3392.00
2019-03-19T09:56:49.095Z,3368.00
2019-03-19T09:57:49.159Z,3392.00
2019-03-19T09:58:49.048Z,3416.00
2019-03-19T09:59:49.038Z,4044.00
2019-03-19T10:00:49.127Z,5048.00
2019-03-19T10:01:49.003Z,5756.00
2019-03-19T10:02:49.075Z,6180.00
2019-03-19T10:03:48.991Z,7116.00
2019-03-19T10:04:49.120Z,6808.00
2019-03-19T10:05:48.982Z,5760.00
2019-03-19T10:06:49.090Z,5216.00
2019-03-19T10:07:48.963Z,5280.00
2019-03-19T10:08:48.971Z,6212.00
2019-03-19T10:09:48.931Z,6932.00
2019-03-19T10:10:48.924Z,6952.00
2019-03-19T10:11:48.944Z,6464.00
2019-03-19T10:12:48.944Z,6460.00
2019-03-19T10:13:48.894Z,5992.00
2019-03-19T10:14:49.955Z,5720.00
2019-03-19T10:15:48.865Z,6968.00
2019-03-19T10:16:48.875Z,7828.00
2019-03-19T10:17:48.886Z,7396.00
2019-03-19T10:18:48.837Z,6440.00
2019-03-19T10:19:49.848Z,6252.00
2019-03-19T10:20:48.796Z,6424.00
2019-03-19T10:21:48.806Z,6632.00
2019-03-19T10:22:48.787Z,7552.00
2019-03-19T10:23:49.808Z,8188.00
2019-03-19T10:24:48.769Z,8268.00
2019-03-19T10:25:48.830Z,7636.00
2019-03-19T10:26:48.750Z,6304.00
2019-03-19T10:27:48.709Z,5044.00
2019-03-19T10:28:48.830Z,4164.00
2019-03-19T10:29:48.690Z,3864.00
2019-03-19T10:30:48.761Z,3216.00
2019-03-19T10:31:48.722Z,3276.00
2019-03-19T10:32:48.665Z,3308.00
2019-03-19T10:33:48.653Z,3500.00
2019-03-19T10:34:49.674Z,3664.00
2019-03-19T10:35:48.637Z,3544.00
2019-03-19T10:36:52.807Z,3652.00
2019-03-19T10:37:48.620Z,4360.00
2019-03-19T10:38:48.709Z,5152.00
2019-03-19T10:39:48.588Z,6004.00
2019-03-19T10:40:48.647Z,6880.00
2019-03-19T10:41:48.578Z,7392.00
2019-03-19T10:42:50.732Z,7560.00
2019-03-19T10:43:48.550Z,6728.00
2019-03-19T10:44:48.617Z,6288.00
2019-03-19T10:45:48.519Z,6132.00
2019-03-19T10:46:48.600Z,5704.00
2019-03-19T10:47:48.500Z,5544.00
2019-03-19T10:48:48.489Z,5032.00
2019-03-19T10:49:48.479Z,4884.00
2019-03-19T10:50:48.522Z,4876.00
2019-03-19T10:51:48.491Z,4992.00
2019-03-19T10:52:48.462Z,5064.00
2019-03-19T10:53:48.432Z,5724.00
2019-03-19T10:54:48.423Z,6564.00
2019-03-19T10:55:48.463Z,7036.00
2019-03-19T10:56:48.424Z,7736.00
2019-03-19T10:57:48.507Z,8236.00
2019-03-19T10:58:48.387Z,8256.00
2019-03-19T10:59:49.378Z,7496.00
2019-03-19T11:00:48.366Z,7296.00
2019-03-19T11:01:51.437Z,6616.00
2019-03-19T11:02:48.346Z,5984.00
2019-03-19T11:03:49.439Z,5648.00
2019-03-19T11:04:48.317Z,4900.00
2019-03-19T11:05:48.315Z,4740.00
2019-03-19T11:06:48.308Z,5228.00
2019-03-19T11:07:48.398Z,5644.00
2019-03-19T11:08:48.269Z,6152.00
2019-03-19T11:09:48.319Z,6076.00
2019-03-19T11:10:48.250Z,5704.00
2019-03-19T11:11:48.263Z,5624.00
2019-03-19T11:12:49.241Z,5980.00
2019-03-19T11:13:48.302Z,6688.00
2019-03-19T11:14:54.813Z,7196.00
2019-03-19T11:15:48.195Z,7440.00
2019-03-19T11:16:48.192Z,7380.00
2019-03-19T11:17:48.280Z,7032.00
2019-03-19T11:18:48.153Z,6680.00
2019-03-19T11:19:48.195Z,6324.00
2019-03-19T11:20:48.135Z,5852.00
2019-03-19T11:21:48.177Z,5240.00
2019-03-19T11:22:48.106Z,4852.00
2019-03-19T11:23:48.166Z,4760.00
2019-03-19T11:24:48.077Z,4608.00
2019-03-19T11:25:54.562Z,4516.00
2019-03-19T11:26:49.079Z,4520.00
2019-03-19T11:27:48.051Z,4544.00
2019-03-19T11:28:48.039Z,4260.00
2019-03-19T11:29:48.079Z,4076.00
2019-03-19T11:30:48.014Z,3896.00
2019-03-19T11:31:48.111Z,4164.00
2019-03-19T11:32:48.016Z,4292.00
2019-03-19T11:33:47.990Z,4420.00
2019-03-19T11:34:48.018Z,4756.00
2019-03-19T11:35:47.963Z,5300.00
2019-03-19T11:36:57.409Z,5692.00
2019-03-19T11:37:48.954Z,5568.00
2019-03-19T11:38:47.923Z,5852.00
2019-03-19T11:39:47.914Z,5876.00
2019-03-19T11:40:47.925Z,6180.00
2019-03-19T11:41:47.910Z,6372.00
2019-03-19T11:42:48.007Z,6500.00
2019-03-19T11:43:47.867Z,6344.00
2019-03-19T11:44:47.861Z,6308.00
2019-03-19T11:45:48.898Z,5956.00
2019-03-19T11:46:47.838Z,5596.00
2019-03-19T11:47:47.953Z,5852.00
2019-03-19T11:48:47.811Z,6204.00
2019-03-19T11:49:47.818Z,6504.00
2019-03-19T11:50:47.800Z,6728.00
2019-03-19T11:51:49.861Z,6644.00
2019-03-19T11:52:47.790Z,6252.00
2019-03-19T11:53:47.811Z,5988.00
2019-03-19T11:54:47.740Z,5476.00
2019-03-19T11:55:47.743Z,4848.00
2019-03-19T11:56:47.822Z,4248.00
2019-03-19T11:57:47.722Z,3840.00
2019-03-19T11:58:47.754Z,3180.00
2019-03-19T11:59:47.703Z,2568.00
2019-03-19T12:00:47.685Z,2456.00
2019-03-19T12:01:47.675Z,2644.00
2019-03-19T12:02:47.774Z,2976.00
2019-03-19T12:03:47.645Z,3012.00
2019-03-19T12:04:47.657Z,2748.00
2019-03-19T12:05:47.627Z,2524.00
2019-03-19T12:06:47.620Z,2224.00
2019-03-19T12:07:47.727Z,2280.00
2019-03-19T12:08:47.599Z,2296.00
2019-03-19T12:09:48.618Z,2428.00
2019-03-19T12:10:47.589Z,2480.00
2019-03-19T12:11:47.541Z,2528.00
2019-03-19T12:12:47.650Z,2912.00
2019-03-19T12:13:47.620Z,3216.00
2019-03-19T12:14:47.583Z,2760.00
2019-03-19T12:15:47.501Z,2388.00
2019-03-19T12:16:47.571Z,2308.00
2019-03-19T12:17:48.781Z,2332.00
2019-03-19T12:18:48.533Z,2504.00
2019-03-19T12:19:47.475Z,2708.00
2019-03-19T12:20:48.573Z,3016.00
2019-03-19T12:21:47.445Z,3456.00
2019-03-19T12:22:47.448Z,3944.00
2019-03-19T12:23:47.446Z,4448.00
2019-03-19T12:24:47.405Z,4908.00
2019-03-19T12:25:47.506Z,5008.00
2019-03-19T12:26:47.367Z,5364.00
2019-03-19T12:27:49.407Z,5276.00
2019-03-19T12:30:56.946Z,4604.00
2019-03-19T12:31:56.841Z,4340.00
2019-03-19T12:32:57.880Z,3964.00
2019-03-19T12:33:56.891Z,3984.00
2019-03-19T12:34:56.802Z,4052.00
2019-03-19T12:35:57.996Z,3972.00
2019-03-19T12:36:56.784Z,3908.00